sensor_id;sensor_type;location;lat;lon;timestamp;pressure;altitude;pressure_sealevel;temperature;humidity
69879;BME280;57161;43.136;24.706;2022-07-01T00:01:38;98967.16;;;23.53;59.22
69879;BME280;57161;43.136;24.706;2022-07-01T00:04:05;98983.69;;;23.56;59.58
69879;BME280;57161;43.136;24.706;2022-07-01T00:06:31;98975.06;;;23.54;59.56
69879;BME280;57161;43.136;24.706;2022-07-01T00:08:56;98978.28;;;23.47;59.42
69879;BME280;57161;43.136;24.706;2022-07-01T00:11:22;98971.75;;;23.44;59.83
69879;BME280;57161;43.136;24.706;2022-07-01T00:13:47;98980.63;;;23.36;59.87
69879;BME280;57161;43.136;24.706;2022-07-01T00:16:13;98985.09;;;23.26;60.30
69879;BME280;57161;43.136;24.706;2022-07-01T00:18:38;98985.25;;;23.14;60.52
69879;BME280;57161;43.136;24.706;2022-07-01T00:21:04;98972.84;;;22.94;61.27
69879;BME280;57161;43.136;24.706;2022-07-01T00:23:29;98991.53;;;22.97;61.12
69879;BME280;57161;43.136;24.706;2022-07-01T00:25:56;98974.75;;;22.75;61.50
69879;BME280;57161;43.136;24.706;2022-07-01T00:28:22;98974.03;;;22.61;61.88
69879;BME280;57161;43.136;24.706;2022-07-01T00:30:47;98959.31;;;22.51;62.13
69879;BME280;57161;43.136;24.706;2022-07-01T00:33:13;98958.03;;;22.54;62.17
69879;BME280;57161;43.136;24.706;2022-07-01T00:35:38;98965.63;;;22.63;61.96
69879;BME280;57161;43.136;24.706;2022-07-01T00:38:04;98970.16;;;22.68;61.96
69879;BME280;57161;43.136;24.706;2022-07-01T00:40:29;98954.97;;;22.64;62.01
69879;BME280;57161;43.136;24.706;2022-07-01T00:42:55;98973.63;;;22.67;62.19
69879;BME280;57161;43.136;24.706;2022-07-01T00:45:21;98971.00;;;22.57;62.25
69879;BME280;57161;43.136;24.706;2022-07-01T00:47:46;98951.72;;;22.42;62.48
69879;BME280;57161;43.136;24.706;2022-07-01T00:50:14;98958.97;;;22.45;62.82
69879;BME280;57161;43.136;24.706;2022-07-01T00:52:41;98939.72;;;22.30;62.71
69879;BME280;57161;43.136;24.706;2022-07-01T00:55:09;98955.84;;;22.39;62.83
69879;BME280;57161;43.136;24.706;2022-07-01T00:57:36;98957.94;;;22.38;63.08
69879;BME280;57161;43.136;24.706;2022-07-01T01:00:20;98941.19;;;22.17;63.30
69879;BME280;57161;43.136;24.706;2022-07-01T01:02:49;98950.03;;;22.09;63.89
69879;BME280;57161;43.136;24.706;2022-07-01T01:05:15;98929.97;;;21.94;64.00
69879;BME280;57161;43.136;24.706;2022-07-01T01:07:43;98941.06;;;22.01;64.38
69879;BME280;57161;43.136;24.706;2022-07-01T01:10:09;98948.00;;;21.98;64.43
69879;BME280;57161;43.136;24.706;2022-07-01T01:12:35;98951.56;;;21.85;64.94
69879;BME280;57161;43.136;24.706;2022-07-01T01:15:01;98949.75;;;21.78;65.10
69879;BME280;57161;43.136;24.706;2022-07-01T01:17:27;98953.88;;;21.75;65.22
69879;BME280;57161;43.136;24.706;2022-07-01T01:19:52;98956.03;;;21.63;65.37
69879;BME280;57161;43.136;24.706;2022-07-01T01:22:21;98944.25;;;21.54;65.87
69879;BME280;57161;43.136;24.706;2022-07-01T01:24:46;98943.03;;;21.32;66.27
69879;BME280;57161;43.136;24.706;2022-07-01T01:27:15;98946.88;;;21.25;66.92
69879;BME280;57161;43.136;24.706;2022-07-01T01:29:42;98947.38;;;21.21;66.81
69879;BME280;57161;43.136;24.706;2022-07-01T01:32:08;98947.78;;;21.16;67.05
69879;BME280;57161;43.136;24.706;2022-07-01T01:34:35;98956.78;;;21.12;66.85
69879;BME280;57161;43.136;24.706;2022-07-01T01:37:06;98953.09;;;21.10;67.24
69879;BME280;57161;43.136;24.706;2022-07-01T01:39:32;98949.41;;;21.07;67.31
69879;BME280;57161;43.136;24.706;2022-07-01T01:41:58;98961.34;;;21.17;67.10
69879;BME280;57161;43.136;24.706;2022-07-01T01:44:23;98905.09;;;20.77;67.30
69879;BME280;57161;43.136;24.706;2022-07-01T01:46:49;98960.03;;;21.07;67.44
69879;BME280;57161;43.136;24.706;2022-07-01T01:49:14;98954.13;;;21.03;67.53
69879;BME280;57161;43.136;24.706;2022-07-01T01:51:40;98970.78;;;21.08;67.20
69879;BME280;57161;43.136;24.706;2022-07-01T01:54:06;98973.50;;;21.06;67.40
69879;BME280;57161;43.136;24.706;2022-07-01T01:56:32;98971.50;;;21.09;67.32
69879;BME280;57161;43.136;24.706;2022-07-01T01:58:59;98981.00;;;21.13;67.25
69879;BME280;57161;43.136;24.706;2022-07-01T02:01:25;98981.63;;;21.12;67.16
69879;BME280;57161;43.136;24.706;2022-07-01T02:03:51;98989.34;;;21.23;67.04
69879;BME280;57161;43.136;24.706;2022-07-01T02:06:18;98999.50;;;21.26;66.88
69879;BME280;57161;43.136;24.706;2022-07-01T02:08:44;98983.56;;;21.21;66.73
69879;BME280;57161;43.136;24.706;2022-07-01T02:11:10;98996.28;;;21.32;66.61
69879;BME280;57161;43.136;24.706;2022-07-01T02:13:36;98995.50;;;21.31;66.80
69879;BME280;57161;43.136;24.706;2022-07-01T02:16:02;98998.75;;;21.25;66.65
69879;BME280;57161;43.136;24.706;2022-07-01T02:18:28;98982.25;;;21.10;66.60
69879;BME280;57161;43.136;24.706;2022-07-01T02:20:54;99014.94;;;21.23;66.60
69879;BME280;57161;43.136;24.706;2022-07-01T02:23:20;99014.84;;;21.09;67.00
69879;BME280;57161;43.136;24.706;2022-07-01T02:25:46;98996.84;;;21.05;66.96
69879;BME280;57161;43.136;24.706;2022-07-01T02:28:12;99008.28;;;21.18;66.79
69879;BME280;57161;43.136;24.706;2022-07-01T02:30:38;99017.19;;;21.13;67.06
69879;BME280;57161;43.136;24.706;2022-07-01T02:33:05;99006.00;;;21.03;67.13
69879;BME280;57161;43.136;24.706;2022-07-01T02:35:31;99024.22;;;21.12;67.33
69879;BME280;57161;43.136;24.706;2022-07-01T02:37:58;99019.09;;;20.96;67.46
69879;BME280;57161;43.136;24.706;2022-07-01T02:40:23;99023.78;;;20.92;67.68
69879;BME280;57161;43.136;24.706;2022-07-01T02:42:49;99005.94;;;20.78;67.93
69879;BME280;57161;43.136;24.706;2022-07-01T02:45:14;99022.94;;;20.89;68.05
69879;BME280;57161;43.136;24.706;2022-07-01T02:47:41;99023.69;;;20.90;67.98
69879;BME280;57161;43.136;24.706;2022-07-01T02:50:09;99012.13;;;20.74;67.78
69879;BME280;57161;43.136;24.706;2022-07-01T02:52:35;99027.41;;;20.81;68.15
69879;BME280;57161;43.136;24.706;2022-07-01T02:55:03;99033.06;;;20.81;68.09
69879;BME280;57161;43.136;24.706;2022-07-01T02:57:29;99034.94;;;20.76;68.15
69879;BME280;57161;43.136;24.706;2022-07-01T02:59:55;99038.00;;;20.80;68.29
69879;BME280;57161;43.136;24.706;2022-07-01T03:02:20;99028.41;;;20.85;67.88
69879;BME280;57161;43.136;24.706;2022-07-01T03:04:47;99042.59;;;20.85;67.98
69879;BME280;57161;43.136;24.706;2022-07-01T03:07:14;99024.81;;;20.85;67.73
69879;BME280;57161;43.136;24.706;2022-07-01T03:09:40;99034.53;;;20.93;67.50
69879;BME280;57161;43.136;24.706;2022-07-01T03:12:07;99044.09;;;21.12;66.80
69879;BME280;57161;43.136;24.706;2022-07-01T03:14:52;99026.31;;;21.11;66.49
69879;BME280;57161;43.136;24.706;2022-07-01T03:17:18;99031.22;;;21.34;66.04
69879;BME280;57161;43.136;24.706;2022-07-01T03:19:45;99049.81;;;21.49;65.77
69879;BME280;57161;43.136;24.706;2022-07-01T03:22:10;99046.00;;;21.44;65.77
69879;BME280;57161;43.136;24.706;2022-07-01T03:24:36;99052.41;;;21.45;65.58
69879;BME280;57161;43.136;24.706;2022-07-01T03:27:01;99046.91;;;21.35;65.82
69879;BME280;57161;43.136;24.706;2022-07-01T03:29:27;99041.78;;;21.08;66.37
69879;BME280;57161;43.136;24.706;2022-07-01T03:31:52;99026.59;;;21.04;66.52
69879;BME280;57161;43.136;24.706;2022-07-01T03:34:18;99052.25;;;21.17;66.85
69879;BME280;57161;43.136;24.706;2022-07-01T03:36:43;99063.47;;;21.27;66.56
69879;BME280;57161;43.136;24.706;2022-07-01T03:39:09;99049.03;;;21.23;66.37
69879;BME280;57161;43.136;24.706;2022-07-01T03:41:34;99067.78;;;21.28;66.48
69879;BME280;57161;43.136;24.706;2022-07-01T03:43:59;99070.63;;;21.28;66.40
69879;BME280;57161;43.136;24.706;2022-07-01T03:46:25;99064.59;;;21.34;66.53
69879;BME280;57161;43.136;24.706;2022-07-01T03:48:50;99062.59;;;21.36;65.96
69879;BME280;57161;43.136;24.706;2022-07-01T03:51:16;99078.00;;;21.45;65.95
69879;BME280;57161;43.136;24.706;2022-07-01T03:53:41;99080.78;;;21.56;65.64
69879;BME280;57161;43.136;24.706;2022-07-01T03:56:25;99089.38;;;21.70;65.25
69879;BME280;57161;43.136;24.706;2022-07-01T03:58:50;99068.63;;;21.68;65.08
69879;BME280;57161;43.136;24.706;2022-07-01T04:01:16;99084.59;;;21.86;64.71
69879;BME280;57161;43.136;24.706;2022-07-01T04:03:41;99090.88;;;21.97;64.33
69879;BME280;57161;43.136;24.706;2022-07-01T04:06:07;99089.22;;;22.05;64.25
69879;BME280;57161;43.136;24.706;2022-07-01T04:08:33;99080.50;;;22.15;63.82
69879;BME280;57161;43.136;24.706;2022-07-01T04:10:58;99068.38;;;22.14;63.77
69879;BME280;57161;43.136;24.706;2022-07-01T04:13:24;99092.34;;;22.37;63.47
69879;BME280;57161;43.136;24.706;2022-07-01T04:15:49;99087.06;;;22.45;63.37
69879;BME280;57161;43.136;24.706;2022-07-01T04:18:15;99074.00;;;22.40;63.03
69879;BME280;57161;43.136;24.706;2022-07-01T04:20:41;99078.97;;;22.39;63.20
69879;BME280;57161;43.136;24.706;2022-07-01T04:23:06;99092.38;;;22.51;63.50
69879;BME280;57161;43.136;24.706;2022-07-01T04:25:31;99099.53;;;22.52;63.21
69879;BME280;57161;43.136;24.706;2022-07-01T04:27:57;99086.97;;;22.43;63.28
69879;BME280;57161;43.136;24.706;2022-07-01T04:30:23;99081.81;;;22.53;63.47
69879;BME280;57161;43.136;24.706;2022-07-01T04:32:49;99095.00;;;22.74;63.44
69879;BME280;57161;43.136;24.706;2022-07-01T04:35:14;99096.59;;;22.77;63.15
69879;BME280;57161;43.136;24.706;2022-07-01T04:37:40;99101.03;;;22.94;63.21
69879;BME280;57161;43.136;24.706;2022-07-01T04:40:06;99087.66;;;22.96;62.90
69879;BME280;57161;43.136;24.706;2022-07-01T04:42:32;99105.56;;;23.13;62.96
69879;BME280;57161;43.136;24.706;2022-07-01T04:44:58;99088.03;;;23.18;62.27
69879;BME280;57161;43.136;24.706;2022-07-01T04:47:23;99106.16;;;23.39;61.80
69879;BME280;57161;43.136;24.706;2022-07-01T04:49:49;99103.81;;;23.49;61.81
69879;BME280;57161;43.136;24.706;2022-07-01T04:52:15;99101.16;;;23.53;61.65
69879;BME280;57161;43.136;24.706;2022-07-01T04:54:41;99099.47;;;23.48;61.75
69879;BME280;57161;43.136;24.706;2022-07-01T04:57:06;99109.59;;;23.64;61.70
69879;BME280;57161;43.136;24.706;2022-07-01T04:59:32;99099.31;;;23.73;61.07
69879;BME280;57161;43.136;24.706;2022-07-01T05:01:58;99103.38;;;23.84;61.15
69879;BME280;57161;43.136;24.706;2022-07-01T05:04:24;99112.63;;;23.98;60.74
69879;BME280;57161;43.136;24.706;2022-07-01T05:06:53;99097.91;;;24.04;60.44
69879;BME280;57161;43.136;24.706;2022-07-01T05:09:19;99103.19;;;24.25;60.18
69879;BME280;57161;43.136;24.706;2022-07-01T05:11:44;99102.75;;;24.31;60.04
69879;BME280;57161;43.136;24.706;2022-07-01T05:14:10;99106.44;;;24.49;59.84
69879;BME280;57161;43.136;24.706;2022-07-01T05:16:35;99108.09;;;24.54;59.86
69879;BME280;57161;43.136;24.706;2022-07-01T05:19:02;99109.19;;;24.63;59.52
69879;BME280;57161;43.136;24.706;2022-07-01T05:21:47;99104.13;;;24.77;58.85
69879;BME280;57161;43.136;24.706;2022-07-01T05:24:22;99099.94;;;24.96;58.56
69879;BME280;57161;43.136;24.706;2022-07-01T05:26:48;99098.91;;;25.05;58.62
69879;BME280;57161;43.136;24.706;2022-07-01T05:29:14;99091.72;;;25.04;58.41
69879;BME280;57161;43.136;24.706;2022-07-01T05:31:41;99066.00;;;25.04;58.29
69879;BME280;57161;43.136;24.706;2022-07-01T05:34:06;99084.94;;;25.29;57.89
69879;BME280;57161;43.136;24.706;2022-07-01T05:36:33;99092.06;;;25.46;57.41
69879;BME280;57161;43.136;24.706;2022-07-01T05:38:59;99093.88;;;25.55;57.65
69879;BME280;57161;43.136;24.706;2022-07-01T05:41:24;99093.53;;;25.64;57.71
69879;BME280;57161;43.136;24.706;2022-07-01T05:43:50;99089.56;;;25.71;57.07
69879;BME280;57161;43.136;24.706;2022-07-01T05:46:15;99096.09;;;25.92;56.79
69879;BME280;57161;43.136;24.706;2022-07-01T05:48:41;99100.59;;;25.97;56.13
69879;BME280;57161;43.136;24.706;2022-07-01T05:51:06;99072.84;;;26.01;55.93
69879;BME280;57161;43.136;24.706;2022-07-01T05:53:32;99101.59;;;26.23;55.80
69879;BME280;57161;43.136;24.706;2022-07-01T05:55:57;99086.03;;;26.28;55.41
69879;BME280;57161;43.136;24.706;2022-07-01T05:58:22;99112.78;;;26.53;55.42
69879;BME280;57161;43.136;24.706;2022-07-01T06:00:48;99100.00;;;26.56;54.97
69879;BME280;57161;43.136;24.706;2022-07-01T06:03:14;99104.53;;;26.63;54.89
69879;BME280;57161;43.136;24.706;2022-07-01T06:05:40;99109.19;;;26.72;54.77
69879;BME280;57161;43.136;24.706;2022-07-01T06:08:06;99121.50;;;26.97;54.28
69879;BME280;57161;43.136;24.706;2022-07-01T06:10:33;99117.84;;;27.14;54.21
69879;BME280;57161;43.136;24.706;2022-07-01T06:12:58;99114.66;;;27.26;53.55
69879;BME280;57161;43.136;24.706;2022-07-01T06:15:24;99129.69;;;27.46;53.23
69879;BME280;57161;43.136;24.706;2022-07-01T06:17:50;99125.09;;;27.59;53.29
69879;BME280;57161;43.136;24.706;2022-07-01T06:20:17;99129.38;;;27.79;53.11
69879;BME280;57161;43.136;24.706;2022-07-01T06:22:43;99127.44;;;27.86;52.28
69879;BME280;57161;43.136;24.706;2022-07-01T06:25:09;99121.50;;;28.02;51.90
69879;BME280;57161;43.136;24.706;2022-07-01T06:27:44;99124.19;;;28.20;51.87
69879;BME280;57161;43.136;24.706;2022-07-01T06:30:11;99129.47;;;28.27;51.57
69879;BME280;57161;43.136;24.706;2022-07-01T06:32:37;99139.31;;;28.44;51.60
69879;BME280;57161;43.136;24.706;2022-07-01T06:35:03;99140.28;;;28.53;50.87
69879;BME280;57161;43.136;24.706;2022-07-01T06:37:29;99138.00;;;28.73;50.93
69879;BME280;57161;43.136;24.706;2022-07-01T06:39:58;99121.84;;;28.86;50.45
69879;BME280;57161;43.136;24.706;2022-07-01T06:42:23;99134.25;;;29.18;49.92
69879;BME280;57161;43.136;24.706;2022-07-01T06:44:49;99120.25;;;29.33;49.28
69879;BME280;57161;43.136;24.706;2022-07-01T06:47:14;99134.75;;;29.65;49.27
69879;BME280;57161;43.136;24.706;2022-07-01T06:49:40;99136.59;;;29.82;48.57
69879;BME280;57161;43.136;24.706;2022-07-01T06:52:06;99120.16;;;29.86;48.40
69879;BME280;57161;43.136;24.706;2022-07-01T06:54:31;99128.31;;;29.96;48.51
69879;BME280;57161;43.136;24.706;2022-07-01T06:56:57;99131.25;;;29.98;48.27
69879;BME280;57161;43.136;24.706;2022-07-01T06:59:22;99125.13;;;29.84;48.23
69879;BME280;57161;43.136;24.706;2022-07-01T07:01:48;99123.06;;;29.88;48.23
69879;BME280;57161;43.136;24.706;2022-07-01T07:04:14;99111.97;;;30.05;48.20
69879;BME280;57161;43.136;24.706;2022-07-01T07:06:40;99129.97;;;30.37;47.50
69879;BME280;57161;43.136;24.706;2022-07-01T07:09:06;99128.94;;;30.57;47.06
69879;BME280;57161;43.136;24.706;2022-07-01T07:11:31;99126.88;;;30.95;46.65
69879;BME280;57161;43.136;24.706;2022-07-01T07:13:56;99131.81;;;31.27;45.16
69879;BME280;57161;43.136;24.706;2022-07-01T07:16:22;99133.41;;;31.36;44.83
69879;BME280;57161;43.136;24.706;2022-07-01T07:18:51;99129.19;;;31.41;44.52
69879;BME280;57161;43.136;24.706;2022-07-01T07:21:16;99125.25;;;31.64;45.17
69879;BME280;57161;43.136;24.706;2022-07-01T07:23:42;99125.97;;;31.65;44.59
69879;BME280;57161;43.136;24.706;2022-07-01T07:26:08;99126.72;;;31.67;44.71
69879;BME280;57161;43.136;24.706;2022-07-01T07:28:34;99124.13;;;31.84;45.06
69879;BME280;57161;43.136;24.706;2022-07-01T07:30:59;99106.81;;;31.86;43.82
69879;BME280;57161;43.136;24.706;2022-07-01T07:33:24;99111.28;;;31.93;44.64
69879;BME280;57161;43.136;24.706;2022-07-01T07:35:50;99112.75;;;31.94;43.83
69879;BME280;57161;43.136;24.706;2022-07-01T07:38:15;99131.78;;;32.11;43.64
69879;BME280;57161;43.136;24.706;2022-07-01T07:40:41;99125.28;;;32.11;43.22
69879;BME280;57161;43.136;24.706;2022-07-01T07:43:07;99125.25;;;32.09;42.08
69879;BME280;57161;43.136;24.706;2022-07-01T07:45:33;99136.63;;;31.99;42.09
69879;BME280;57161;43.136;24.706;2022-07-01T07:47:59;99136.59;;;31.94;41.55
69879;BME280;57161;43.136;24.706;2022-07-01T07:50:26;99138.56;;;31.84;41.39
69879;BME280;57161;43.136;24.706;2022-07-01T07:52:52;99139.69;;;31.64;41.72
69879;BME280;57161;43.136;24.706;2022-07-01T07:55:18;99146.13;;;31.61;42.30
69879;BME280;57161;43.136;24.706;2022-07-01T07:57:43;99146.28;;;31.71;42.27
69879;BME280;57161;43.136;24.706;2022-07-01T08:00:11;99150.75;;;31.76;42.69
69879;BME280;57161;43.136;24.706;2022-07-01T08:02:37;99140.00;;;31.83;42.80
69879;BME280;57161;43.136;24.706;2022-07-01T08:05:03;99160.22;;;31.83;42.21
69879;BME280;57161;43.136;24.706;2022-07-01T08:07:28;99152.63;;;31.61;41.91
69879;BME280;57161;43.136;24.706;2022-07-01T08:09:54;99162.81;;;31.66;42.19
69879;BME280;57161;43.136;24.706;2022-07-01T08:12:20;99164.84;;;31.58;42.09
69879;BME280;57161;43.136;24.706;2022-07-01T08:14:47;99177.94;;;31.65;42.98
69879;BME280;57161;43.136;24.706;2022-07-01T08:17:12;99185.59;;;31.48;43.95
69879;BME280;57161;43.136;24.706;2022-07-01T08:19:38;99187.75;;;31.48;44.18
69879;BME280;57161;43.136;24.706;2022-07-01T08:22:03;99188.41;;;31.44;44.79
69879;BME280;57161;43.136;24.706;2022-07-01T08:24:29;99186.91;;;31.41;45.28
69879;BME280;57161;43.136;24.706;2022-07-01T08:26:54;99181.00;;;31.35;43.59
69879;BME280;57161;43.136;24.706;2022-07-01T08:29:20;99194.47;;;31.22;44.73
69879;BME280;57161;43.136;24.706;2022-07-01T08:31:45;99186.88;;;31.03;44.39
69879;BME280;57161;43.136;24.706;2022-07-01T08:34:11;99176.81;;;30.70;43.97
69879;BME280;57161;43.136;24.706;2022-07-01T08:36:37;99187.75;;;30.75;43.99
69879;BME280;57161;43.136;24.706;2022-07-01T08:39:03;99188.50;;;30.76;44.20
69879;BME280;57161;43.136;24.706;2022-07-01T08:41:29;99177.50;;;30.68;43.82
69879;BME280;57161;43.136;24.706;2022-07-01T08:43:54;99184.69;;;30.67;44.04
69879;BME280;57161;43.136;24.706;2022-07-01T08:46:21;99169.88;;;30.49;44.77
69879;BME280;57161;43.136;24.706;2022-07-01T08:48:47;99186.44;;;30.48;45.08
69879;BME280;57161;43.136;24.706;2022-07-01T08:51:12;99185.13;;;30.56;45.19
69879;BME280;57161;43.136;24.706;2022-07-01T08:53:38;99187.03;;;30.43;45.62
69879;BME280;57161;43.136;24.706;2022-07-01T08:56:04;99194.16;;;30.40;46.27
69879;BME280;57161;43.136;24.706;2022-07-01T08:58:49;99198.38;;;30.35;47.25
69879;BME280;57161;43.136;24.706;2022-07-01T09:01:22;99196.03;;;30.27;48.23
69879;BME280;57161;43.136;24.706;2022-07-01T09:03:54;99193.34;;;30.35;48.69
69879;BME280;57161;43.136;24.706;2022-07-01T09:06:26;99200.31;;;30.58;48.05
69879;BME280;57161;43.136;24.706;2022-07-01T09:08:52;99201.50;;;30.77;46.12
69879;BME280;57161;43.136;24.706;2022-07-01T09:11:23;99181.38;;;30.81;46.15
69879;BME280;57161;43.136;24.706;2022-07-01T09:14:09;99183.06;;;30.92;45.50
69879;BME280;57161;43.136;24.706;2022-07-01T09:16:43;99197.34;;;31.20;43.96
69879;BME280;57161;43.136;24.706;2022-07-01T09:19:13;99191.81;;;31.32;42.57
69879;BME280;57161;43.136;24.706;2022-07-01T09:21:39;99201.44;;;31.45;43.07
69879;BME280;57161;43.136;24.706;2022-07-01T09:27:13;99186.66;;;31.27;44.08
69879;BME280;57161;43.136;24.706;2022-07-01T09:29:46;99200.34;;;31.26;45.31
69879;BME280;57161;43.136;24.706;2022-07-01T09:32:14;99190.38;;;31.33;46.12
69879;BME280;57161;43.136;24.706;2022-07-01T09:34:43;99191.53;;;31.18;46.73
69879;BME280;57161;43.136;24.706;2022-07-01T09:37:20;99189.94;;;31.11;46.49
69879;BME280;57161;43.136;24.706;2022-07-01T09:39:48;99180.66;;;31.17;47.27
69879;BME280;57161;43.136;24.706;2022-07-01T09:42:15;99178.75;;;31.29;47.79
69879;BME280;57161;43.136;24.706;2022-07-01T09:44:53;99168.31;;;31.12;47.23
69879;BME280;57161;43.136;24.706;2022-07-01T09:47:22;99176.44;;;31.22;47.04
69879;BME280;57161;43.136;24.706;2022-07-01T09:49:49;99168.69;;;31.30;46.63
69879;BME280;57161;43.136;24.706;2022-07-01T09:52:14;99170.38;;;31.44;46.65
69879;BME280;57161;43.136;24.706;2022-07-01T09:54:40;99167.09;;;31.63;45.84
69879;BME280;57161;43.136;24.706;2022-07-01T09:57:06;99168.81;;;31.79;43.44
69879;BME280;57161;43.136;24.706;2022-07-01T09:59:31;99156.16;;;32.00;42.11
69879;BME280;57161;43.136;24.706;2022-07-01T10:01:57;99154.97;;;32.17;40.53
69879;BME280;57161;43.136;24.706;2022-07-01T10:04:24;99160.69;;;32.11;42.00
69879;BME280;57161;43.136;24.706;2022-07-01T10:07:04;99144.25;;;31.78;43.47
69879;BME280;57161;43.136;24.706;2022-07-01T10:12:34;99153.50;;;32.14;44.06
69879;BME280;57161;43.136;24.706;2022-07-01T10:15:01;99133.56;;;32.35;44.71
69879;BME280;57161;43.136;24.706;2022-07-01T10:17:35;99143.34;;;32.64;42.77
69879;BME280;57161;43.136;24.706;2022-07-01T10:20:12;99143.72;;;32.92;41.48
69879;BME280;57161;43.136;24.706;2022-07-01T10:22:40;99135.22;;;33.06;40.98
69879;BME280;57161;43.136;24.706;2022-07-01T10:25:45;99144.69;;;33.15;41.65
69879;BME280;57161;43.136;24.706;2022-07-01T10:31:13;99135.72;;;33.55;41.72
69879;BME280;57161;43.136;24.706;2022-07-01T10:34:00;99134.38;;;33.68;41.17
69879;BME280;57161;43.136;24.706;2022-07-01T10:44:19;99127.16;;;33.73;39.69
69879;BME280;57161;43.136;24.706;2022-07-01T10:52:06;99119.34;;;33.86;37.41
69879;BME280;57161;43.136;24.706;2022-07-01T11:02:25;99100.84;;;34.40;34.62
69879;BME280;57161;43.136;24.706;2022-07-01T11:04:54;99097.19;;;34.38;33.44
69879;BME280;57161;43.136;24.706;2022-07-01T11:07:20;99092.88;;;34.45;33.39
69879;BME280;57161;43.136;24.706;2022-07-01T11:09:45;99093.66;;;34.59;32.49
69879;BME280;57161;43.136;24.706;2022-07-01T11:12:14;99102.34;;;34.57;32.26
69879;BME280;57161;43.136;24.706;2022-07-01T11:14:40;99084.91;;;34.49;32.10
69879;BME280;57161;43.136;24.706;2022-07-01T11:17:08;99098.75;;;34.63;32.13
69879;BME280;57161;43.136;24.706;2022-07-01T11:19:34;99090.81;;;34.78;31.34
69879;BME280;57161;43.136;24.706;2022-07-01T11:21:59;99085.00;;;34.82;30.55
69879;BME280;57161;43.136;24.706;2022-07-01T11:24:25;99081.38;;;34.75;30.80
69879;BME280;57161;43.136;24.706;2022-07-01T11:26:55;99085.06;;;34.90;30.75
69879;BME280;57161;43.136;24.706;2022-07-01T11:29:26;99077.84;;;34.99;30.97
69879;BME280;57161;43.136;24.706;2022-07-01T11:31:52;99080.75;;;35.07;30.67
69879;BME280;57161;43.136;24.706;2022-07-01T11:34:18;99082.22;;;35.18;30.19
69879;BME280;57161;43.136;24.706;2022-07-01T11:36:45;99079.31;;;35.20;29.77
69879;BME280;57161;43.136;24.706;2022-07-01T11:39:30;99066.25;;;35.30;29.94
69879;BME280;57161;43.136;24.706;2022-07-01T11:42:05;99069.19;;;35.44;29.54
69879;BME280;57161;43.136;24.706;2022-07-01T11:44:37;99064.81;;;35.35;30.04
69879;BME280;57161;43.136;24.706;2022-07-01T11:47:04;99069.22;;;35.48;29.51
69879;BME280;57161;43.136;24.706;2022-07-01T11:49:30;99070.66;;;35.55;29.03
69879;BME280;57161;43.136;24.706;2022-07-01T11:52:01;99069.19;;;35.58;29.94
69879;BME280;57161;43.136;24.706;2022-07-01T11:54:27;99054.66;;;35.70;29.40
69879;BME280;57161;43.136;24.706;2022-07-01T11:56:53;99056.09;;;35.90;29.26
69879;BME280;57161;43.136;24.706;2022-07-01T11:59:19;99058.22;;;36.09;29.28
69879;BME280;57161;43.136;24.706;2022-07-01T12:01:52;99049.47;;;36.18;28.63
69879;BME280;57161;43.136;24.706;2022-07-01T12:04:19;99040.78;;;36.09;29.04
69879;BME280;57161;43.136;24.706;2022-07-01T12:06:45;99041.44;;;36.34;29.05
69879;BME280;57161;43.136;24.706;2022-07-01T12:09:13;99041.47;;;36.32;29.25
69879;BME280;57161;43.136;24.706;2022-07-01T12:11:46;99039.97;;;36.37;28.35
69879;BME280;57161;43.136;24.706;2022-07-01T12:14:11;99034.16;;;36.27;28.91
69879;BME280;57161;43.136;24.706;2022-07-01T12:16:41;99031.97;;;36.38;29.16
69879;BME280;57161;43.136;24.706;2022-07-01T12:19:07;99036.94;;;36.64;29.15
69879;BME280;57161;43.136;24.706;2022-07-01T12:21:51;99021.63;;;36.67;28.23
69879;BME280;57161;43.136;24.706;2022-07-01T12:24:17;99023.75;;;36.75;28.19
69879;BME280;57161;43.136;24.706;2022-07-01T12:29:20;99012.16;;;36.69;28.26
69879;BME280;57161;43.136;24.706;2022-07-01T12:32:00;99020.06;;;36.89;29.08
69879;BME280;57161;43.136;24.706;2022-07-01T12:34:41;99014.78;;;37.14;28.97
69879;BME280;57161;43.136;24.706;2022-07-01T12:37:11;99007.38;;;37.33;27.49
69879;BME280;57161;43.136;24.706;2022-07-01T12:44:54;98995.47;;;37.60;26.94
69879;BME280;57161;43.136;24.706;2022-07-01T12:47:32;98988.94;;;37.57;27.36
69879;BME280;57161;43.136;24.706;2022-07-01T12:53:12;98994.59;;;37.77;26.03
69879;BME280;57161;43.136;24.706;2022-07-01T12:55:39;98989.66;;;37.55;26.72
69879;BME280;57161;43.136;24.706;2022-07-01T12:58:07;98991.03;;;37.67;26.99
69879;BME280;57161;43.136;24.706;2022-07-01T13:00:34;98992.47;;;37.68;26.59
69879;BME280;57161;43.136;24.706;2022-07-01T13:03:01;98991.03;;;37.67;26.23
69879;BME280;57161;43.136;24.706;2022-07-01T13:05:29;98996.06;;;37.76;26.67
69879;BME280;57161;43.136;24.706;2022-07-01T13:07:55;98990.22;;;37.76;26.63
69879;BME280;57161;43.136;24.706;2022-07-01T13:10:21;98990.25;;;37.70;26.32
69879;BME280;57161;43.136;24.706;2022-07-01T13:12:47;98973.59;;;37.63;26.71
69879;BME280;57161;43.136;24.706;2022-07-01T13:15:14;98987.94;;;37.83;26.49
69879;BME280;57161;43.136;24.706;2022-07-01T13:17:41;98985.00;;;37.85;26.46
69879;BME280;57161;43.136;24.706;2022-07-01T13:20:07;98976.41;;;37.71;26.79
69879;BME280;57161;43.136;24.706;2022-07-01T13:22:34;98986.50;;;37.82;27.77
69879;BME280;57161;43.136;24.706;2022-07-01T13:25:01;98984.72;;;38.07;27.40
69879;BME280;57161;43.136;24.706;2022-07-01T13:27:27;98982.56;;;38.08;26.10
69879;BME280;57161;43.136;24.706;2022-07-01T13:29:52;98975.16;;;38.17;26.47
69879;BME280;57161;43.136;24.706;2022-07-01T13:32:18;98969.88;;;38.32;26.29